Anshun, Guizhou

1:04 PM CST on May 30, 2015 (GMT +0800)
Guiyang | | Change Station
CLOSE
Current Station
Airport
Location: Guiyang,
Elevation: 3734 ft
Nearby Weather Stations

Elev 3734 ft 26.54 °N, 106.80 °E | Updated 1 hour ago

Overcast
Overcast
64 °F
Feels Like 64 °F
N
2
Wind Variable Wind from Variable

Today
High -- | Low -- °F
--% Chance of Precip.
Yesterday
High -- | Low -- °F
Precip. -- in
6:04 AM 7:43 PM
Waxing Gibbous, 88% visible
Pressure 30.01 in
Visibility 6.2 miles
Clouds Scattered Clouds 900 ft
Mostly Cloudy 1600 ft
Overcast 3000 ft
Dew Point 63 °F
Humidity 94%
Rainfall 0.00 in
Snow Depth Not available.
UV 4 out of 12
Pollen Not available.
Air Quality Not available.
Flu Activity Not available.
METAR ZUGY 300400Z VRB01MPS 9999 SCT009 BKN016 OVC030 18/17 Q1016 NOSIG

More Conditions Fewer Conditions

Pressure 30.01 in
Visibility 6.2 miles
Clouds Scattered Clouds 900 ft
Mostly Cloudy 1600 ft
Overcast 3000 ft
Dew Point 63 °F
Humidity 94%
Rainfall 0.00 in
Snow Depth Not available.
UV 4 out of 12
Pollen Not available.
Air Quality Not available.
Flu Activity Not available.
METAR ZUGY 300400Z VRB01MPS 9999 SCT009 BKN016 OVC030 18/17 Q1016 NOSIG

More Conditions Fewer Conditions

10-Day Weather Forecast

Almanac

Astronomy

May. 30, 2015 Rise Set
Actual Time
Civil Twilight
Nautical Twilight
Astronomical Twilight
Moon
Length of Visible Light
Length of Day
Tomorrow will be .
, % of the Moon is Illuminated

Today's Extremes

Country Highs Country Lows

Community

WunderPhotos

Upload Photos

1,825,459 photos uploaded!

WunderBlogs® & News

Nearby

Air Quality

  Air Quality AQ Index Pollutant
Not available.

Snow Depth

Station Depth Elevation

Earthquake Activity

City Distance Mag. Time & Date
Minimum magnitude displayed is 2.5.

Coastal Water Temperatures

Place Temperature

Stations

Nearby Weather Stations

Station Location Temp. Windchill Dew Point Humidity Wind Precip. Elev Updated Type